Airfield :
LOGIN :

Register | Disclaimer

   EN    FR    IT 

 










Legend :    VFR   Marginal VFR   IFR   Intensive IFR   Very Intensive IFR
Visi :
Ceiling :
>= 8 km
>= 3000ft
5 to 8 km
1000 to 3000 ft
1500m to 5 km
500 to 1000 ft
800 to 1500m
200 to 500 ft
< 800m
< 200 ft
Symbols :   Thunderstorms  Fog  Heavy snow  Heavy precipitations  Wind > 20 kt
SIGMETs :     Misc.  Thunderstorms  Icing  Turbulence  Mountain Waves  Volcanic Ashes







- Airport Elevation : 154 ft
- IATA code : SZZ


EPSC - Szczecin Goleniow

CURRENT METAR :
  • 241900Z 32017KT 6000 -SHRA FEW009 BKN031CB 06/04 Q1025

EXPIRED METARs :
  • 241830Z 28010KT 9999 FEW020CB 08/03 Q1024
  • 241800Z 28020KT 9999 -SHRA FEW013CB 08/04 Q1024
  • 241730Z 29018KT 9999 FEW036CB 10/02 Q1023
  • 241700Z 29015KT 9999 FEW036CB 10/01 Q1022
  • 241630Z 28013KT 9999 FEW036CB 11/05 Q1022

TAF TAF EPSC
Valid from the 24 at 18:00 until the 25 at 18:00 UTC


241730Z 2418/2518 29016KT 9999 BKN030
TEMPO 2418/2424 30015G28KT SHRA BKN020CB
PROB40
TEMPO 2418/2420 3000 TSRAGS BKN014CB
No reported NOTAMs for that airfield.



MET'MAP, your aeronautical weather chart ! - Copyright ORBIFLY December 2007 - Disclaimer

ORBIFLY MET'MAP TEAM :

Programming & Development : Alexandra Zaïnal
Concept & Development : Baudouin d'Aumeries
Co-Development & Prog : Marc-Olivier Méhu
Technical & hardware support : Manuel Goepfert

Contact : metmap@orbifly.com




SOURCES & CREDITS :

   NOAA